sensor_id;sensor_type;location;lat;lon;timestamp;P1;durP1;ratioP1;P2;durP2;ratioP2
61675;SDS011;47574;52.090;5.244;2023-01-20T00:01:18;6.1;;;5.7;;
61675;SDS011;47574;52.090;5.244;2023-01-20T00:02:55;6.8;;;6.1;;
61675;SDS011;47574;52.090;5.244;2023-01-20T00:04:31;6.3;;;5.8;;
61675;SDS011;47574;52.090;5.244;2023-01-20T00:06:07;7.1;;;6.5;;
61675;SDS011;47574;52.090;5.244;2023-01-20T00:09:21;6.7;;;6.1;;
61675;SDS011;47574;52.090;5.244;2023-01-20T00:10:57;7.5;;;6.8;;
61675;SDS011;47574;52.090;5.244;2023-01-20T00:12:38;7.5;;;6.8;;
61675;SDS011;47574;52.090;5.244;2023-01-20T00:15:51;7.1;;;6.5;;
61675;SDS011;47574;52.090;5.244;2023-01-20T00:17:27;8.2;;;7.4;;
61675;SDS011;47574;52.090;5.244;2023-01-20T00:19:03;8.2;;;7.4;;
61675;SDS011;47574;52.090;5.244;2023-01-20T00:22:16;9.4;;;8.5;;
61675;SDS011;47574;52.090;5.244;2023-01-20T00:23:52;9.71;;;8.71;;
61675;SDS011;47574;52.090;5.244;2023-01-20T00:25:29;10.6;;;9.6;;
61675;SDS011;47574;52.090;5.244;2023-01-20T00:27:07;10.3;;;9.31;;
61675;SDS011;47574;52.090;5.244;2023-01-20T00:30:20;11.5;;;10.3;;
61675;SDS011;47574;52.090;5.244;2023-01-20T00:31:57;11.7;;;10.5;;
61675;SDS011;47574;52.090;5.244;2023-01-20T00:33:33;12.3;;;10.8;;
61675;SDS011;47574;52.090;5.244;2023-01-20T00:36:46;12.2;;;11.1;;
61675;SDS011;47574;52.090;5.244;2023-01-20T00:38:23;13.0;;;11.9;;
61675;SDS011;47574;52.090;5.244;2023-01-20T00:39:59;12.8;;;11.5;;
61675;SDS011;47574;52.090;5.244;2023-01-20T00:43:12;13.0;;;11.7;;
61675;SDS011;47574;52.090;5.244;2023-01-20T00:44:48;12.8;;;11.6;;
61675;SDS011;47574;52.090;5.244;2023-01-20T00:46:24;12.7;;;11.4;;
61675;SDS011;47574;52.090;5.244;2023-01-20T00:48:00;12.4;;;11.3;;
61675;SDS011;47574;52.090;5.244;2023-01-20T00:51:13;13.9;;;12.4;;
61675;SDS011;47574;52.090;5.244;2023-01-20T00:52:50;13.7;;;12.4;;
61675;SDS011;47574;52.090;5.244;2023-01-20T00:54:26;15.0;;;13.4;;
61675;SDS011;47574;52.090;5.244;2023-01-20T00:57:39;15.3;;;13.7;;
61675;SDS011;47574;52.090;5.244;2023-01-20T00:59:15;15.1;;;13.5;;
61675;SDS011;47574;52.090;5.244;2023-01-20T01:00:52;15.1;;;13.5;;
61675;SDS011;47574;52.090;5.244;2023-01-20T01:04:06;16.2;;;14.6;;
61675;SDS011;47574;52.090;5.244;2023-01-20T01:05:42;16.5;;;14.8;;
61675;SDS011;47574;52.090;5.244;2023-01-20T01:07:20;16.2;;;14.5;;
61675;SDS011;47574;52.090;5.244;2023-01-20T01:08:56;16.5;;;14.8;;
61675;SDS011;47574;52.090;5.244;2023-01-20T01:12:09;16.11;;;14.6;;
61675;SDS011;47574;52.090;5.244;2023-01-20T01:13:46;16.5;;;15.0;;
61675;SDS011;47574;52.090;5.244;2023-01-20T01:15:22;17.2;;;15.4;;
61675;SDS011;47574;52.090;5.244;2023-01-20T01:18:34;17.41;;;15.6;;
61675;SDS011;47574;52.090;5.244;2023-01-20T01:20:10;17.5;;;15.7;;
61675;SDS011;47574;52.090;5.244;2023-01-20T01:21:48;17.7;;;16.0;;
61675;SDS011;47574;52.090;5.244;2023-01-20T01:25:00;18.91;;;16.9;;
61675;SDS011;47574;52.090;5.244;2023-01-20T01:26:38;18.91;;;16.9;;
61675;SDS011;47574;52.090;5.244;2023-01-20T01:28:14;18.11;;;16.2;;
61675;SDS011;47574;52.090;5.244;2023-01-20T01:29:50;18.61;;;16.8;;
61675;SDS011;47574;52.090;5.244;2023-01-20T01:33:02;19.0;;;16.61;;
61675;SDS011;47574;52.090;5.244;2023-01-20T01:34:38;19.7;;;17.61;;
61675;SDS011;47574;52.090;5.244;2023-01-20T01:36:15;19.8;;;17.7;;
61675;SDS011;47574;52.090;5.244;2023-01-20T01:39:28;19.61;;;17.5;;
61675;SDS011;47574;52.090;5.244;2023-01-20T01:41:04;20.11;;;17.91;;
61675;SDS011;47574;52.090;5.244;2023-01-20T01:42:41;23.6;;;19.2;;
61675;SDS011;47574;52.090;5.244;2023-01-20T01:45:56;21.5;;;19.2;;
61675;SDS011;47574;52.090;5.244;2023-01-20T01:47:33;21.9;;;19.61;;
61675;SDS011;47574;52.090;5.244;2023-01-20T01:49:10;21.2;;;18.91;;
61675;SDS011;47574;52.090;5.244;2023-01-20T01:50:53;22.2;;;19.61;;
61675;SDS011;47574;52.090;5.244;2023-01-20T01:54:11;21.6;;;19.3;;
61675;SDS011;47574;52.090;5.244;2023-01-20T01:55:53;24.6;;;19.8;;
61675;SDS011;47574;52.090;5.244;2023-01-20T01:57:32;23.4;;;20.41;;
61675;SDS011;47574;52.090;5.244;2023-01-20T01:59:10;27.0;;;21.9;;
61675;SDS011;47574;52.090;5.244;2023-01-20T02:02:26;26.2;;;21.9;;
61675;SDS011;47574;52.090;5.244;2023-01-20T02:04:03;27.9;;;24.0;;
61675;SDS011;47574;52.090;5.244;2023-01-20T02:05:44;29.0;;;23.5;;
61675;SDS011;47574;52.090;5.244;2023-01-20T02:09:02;29.5;;;24.0;;
61675;SDS011;47574;52.090;5.244;2023-01-20T02:10:40;29.4;;;23.6;;
61675;SDS011;47574;52.090;5.244;2023-01-20T02:12:17;31.7;;;24.4;;
61675;SDS011;47574;52.090;5.244;2023-01-20T02:13:57;31.0;;;24.2;;
61675;SDS011;47574;52.090;5.244;2023-01-20T02:17:22;31.7;;;24.5;;
61675;SDS011;47574;52.090;5.244;2023-01-20T02:19:07;34.6;;;25.8;;
61675;SDS011;47574;52.090;5.244;2023-01-20T02:21:16;35.1;;;26.1;;
61675;SDS011;47574;52.090;5.244;2023-01-20T02:24:09;35.31;;;26.6;;
61675;SDS011;47574;52.090;5.244;2023-01-20T02:27:33;37.4;;;27.9;;
61675;SDS011;47574;52.090;5.244;2023-01-20T02:32:49;41.0;;;29.7;;
61675;SDS011;47574;52.090;5.244;2023-01-20T02:36:18;43.6;;;30.7;;
61675;SDS011;47574;52.090;5.244;2023-01-20T02:38:06;39.9;;;29.5;;
61675;SDS011;47574;52.090;5.244;2023-01-20T02:39:52;43.3;;;31.8;;
61675;SDS011;47574;52.090;5.244;2023-01-20T02:41:41;45.7;;;32.5;;
61675;SDS011;47574;52.090;5.244;2023-01-20T02:43:29;49.8;;;34.81;;
61675;SDS011;47574;52.090;5.244;2023-01-20T02:45:12;47.3;;;33.8;;
61675;SDS011;47574;52.090;5.244;2023-01-20T02:48:40;47.4;;;33.71;;
61675;SDS011;47574;52.090;5.244;2023-01-20T02:50:22;50.4;;;35.4;;
61675;SDS011;47574;52.090;5.244;2023-01-20T02:52:06;50.8;;;35.4;;
61675;SDS011;47574;52.090;5.244;2023-01-20T02:53:48;51.4;;;36.4;;
61675;SDS011;47574;52.090;5.244;2023-01-20T02:57:14;50.5;;;35.31;;
61675;SDS011;47574;52.090;5.244;2023-01-20T02:58:57;50.8;;;35.1;;
61675;SDS011;47574;52.090;5.244;2023-01-20T03:00:39;53.7;;;35.81;;
61675;SDS011;47574;52.090;5.244;2023-01-20T03:04:01;55.8;;;37.81;;
61675;SDS011;47574;52.090;5.244;2023-01-20T03:07:24;56.4;;;37.1;;
61675;SDS011;47574;52.090;5.244;2023-01-20T03:09:05;55.0;;;37.9;;
61675;SDS011;47574;52.090;5.244;2023-01-20T03:10:45;56.7;;;37.9;;
61675;SDS011;47574;52.090;5.244;2023-01-20T03:12:26;55.3;;;37.21;;
61675;SDS011;47574;52.090;5.244;2023-01-20T03:15:51;55.6;;;37.31;;
61675;SDS011;47574;52.090;5.244;2023-01-20T03:17:32;56.3;;;37.4;;
61675;SDS011;47574;52.090;5.244;2023-01-20T03:19:10;57.4;;;37.71;;
61675;SDS011;47574;52.090;5.244;2023-01-20T03:20:46;58.7;;;37.21;;
61675;SDS011;47574;52.090;5.244;2023-01-20T03:23:58;55.6;;;36.81;;
61675;SDS011;47574;52.090;5.244;2023-01-20T03:25:38;55.1;;;36.81;;
61675;SDS011;47574;52.090;5.244;2023-01-20T03:27:15;58.1;;;36.9;;
61675;SDS011;47574;52.090;5.244;2023-01-20T03:30:29;54.8;;;35.21;;
61675;SDS011;47574;52.090;5.244;2023-01-20T03:32:07;54.2;;;35.5;;
61675;SDS011;47574;52.090;5.244;2023-01-20T03:33:46;52.8;;;34.81;;
61675;SDS011;47574;52.090;5.244;2023-01-20T03:35:25;54.5;;;34.21;;
61675;SDS011;47574;52.090;5.244;2023-01-20T03:38:39;53.2;;;34.81;;
61675;SDS011;47574;52.090;5.244;2023-01-20T03:40:16;52.4;;;34.6;;
61675;SDS011;47574;52.090;5.244;2023-01-20T03:41:55;53.6;;;34.31;;
61675;SDS011;47574;52.090;5.244;2023-01-20T03:43:42;56.3;;;34.6;;
61675;SDS011;47574;52.090;5.244;2023-01-20T03:47:14;55.5;;;35.1;;
61675;SDS011;47574;52.090;5.244;2023-01-20T03:49:01;55.8;;;35.9;;
61675;SDS011;47574;52.090;5.244;2023-01-20T03:50:50;55.9;;;35.5;;
61675;SDS011;47574;52.090;5.244;2023-01-20T03:52:32;56.6;;;35.5;;
61675;SDS011;47574;52.090;5.244;2023-01-20T03:54:14;58.9;;;36.71;;
61675;SDS011;47574;52.090;5.244;2023-01-20T03:57:42;57.4;;;36.71;;
61675;SDS011;47574;52.090;5.244;2023-01-20T03:59:28;59.4;;;36.81;;
61675;SDS011;47574;52.090;5.244;2023-01-20T04:01:09;59.4;;;36.81;;
61675;SDS011;47574;52.090;5.244;2023-01-20T04:02:47;58.4;;;37.6;;
61675;SDS011;47574;52.090;5.244;2023-01-20T04:06:03;58.5;;;36.5;;
61675;SDS011;47574;52.090;5.244;2023-01-20T04:07:42;52.8;;;35.6;;
61675;SDS011;47574;52.090;5.244;2023-01-20T04:09:23;56.1;;;36.21;;
61675;SDS011;47574;52.090;5.244;2023-01-20T04:11:08;59.2;;;37.1;;
61675;SDS011;47574;52.090;5.244;2023-01-20T04:14:21;59.0;;;37.9;;
61675;SDS011;47574;52.090;5.244;2023-01-20T04:15:57;59.0;;;37.4;;
61675;SDS011;47574;52.090;5.244;2023-01-20T04:17:36;59.0;;;37.4;;
61675;SDS011;47574;52.090;5.244;2023-01-20T04:19:12;60.2;;;38.0;;
61675;SDS011;47574;52.090;5.244;2023-01-20T04:22:32;61.9;;;39.81;;
61675;SDS011;47574;52.090;5.244;2023-01-20T04:24:15;64.8;;;40.81;;
61675;SDS011;47574;52.090;5.244;2023-01-20T04:26:00;65.2;;;40.81;;
61675;SDS011;47574;52.090;5.244;2023-01-20T04:27:36;65.41;;;41.8;;
61675;SDS011;47574;52.090;5.244;2023-01-20T04:30:49;73.41;;;42.5;;
61675;SDS011;47574;52.090;5.244;2023-01-20T04:32:26;65.5;;;41.1;;
61675;SDS011;47574;52.090;5.244;2023-01-20T04:34:02;67.8;;;42.3;;
61675;SDS011;47574;52.090;5.244;2023-01-20T04:37:16;65.3;;;41.4;;
61675;SDS011;47574;52.090;5.244;2023-01-20T04:38:52;69.8;;;42.6;;
61675;SDS011;47574;52.090;5.244;2023-01-20T04:40:28;71.0;;;41.2;;
61675;SDS011;47574;52.090;5.244;2023-01-20T04:43:41;68.1;;;42.2;;
61675;SDS011;47574;52.090;5.244;2023-01-20T04:45:19;64.1;;;41.7;;
61675;SDS011;47574;52.090;5.244;2023-01-20T04:46:56;66.6;;;40.21;;
61675;SDS011;47574;52.090;5.244;2023-01-20T04:48:33;62.6;;;40.31;;
61675;SDS011;47574;52.090;5.244;2023-01-20T04:51:47;63.6;;;40.81;;
61675;SDS011;47574;52.090;5.244;2023-01-20T04:53:23;63.2;;;39.71;;
61675;SDS011;47574;52.090;5.244;2023-01-20T04:54:59;61.5;;;39.4;;
61675;SDS011;47574;52.090;5.244;2023-01-20T04:58:14;63.2;;;39.6;;
61675;SDS011;47574;52.090;5.244;2023-01-20T04:59:50;64.0;;;41.2;;
61675;SDS011;47574;52.090;5.244;2023-01-20T05:01:26;65.5;;;41.0;;
61675;SDS011;47574;52.090;5.244;2023-01-20T05:04:39;66.0;;;41.2;;
61675;SDS011;47574;52.090;5.244;2023-01-20T05:06:15;65.91;;;41.9;;
61675;SDS011;47574;52.090;5.244;2023-01-20T05:07:52;67.0;;;41.3;;
61675;SDS011;47574;52.090;5.244;2023-01-20T05:09:30;68.3;;;42.2;;
61675;SDS011;47574;52.090;5.244;2023-01-20T05:12:43;67.5;;;41.1;;
61675;SDS011;47574;52.090;5.244;2023-01-20T05:14:19;66.6;;;41.4;;
61675;SDS011;47574;52.090;5.244;2023-01-20T05:15:55;70.3;;;42.8;;
61675;SDS011;47574;52.090;5.244;2023-01-20T05:19:09;71.11;;;43.3;;
61675;SDS011;47574;52.090;5.244;2023-01-20T05:20:47;72.5;;;43.5;;
61675;SDS011;47574;52.090;5.244;2023-01-20T05:22:24;69.2;;;42.6;;
61675;SDS011;47574;52.090;5.244;2023-01-20T05:25:36;74.61;;;45.8;;
61675;SDS011;47574;52.090;5.244;2023-01-20T05:27:12;73.41;;;44.1;;
61675;SDS011;47574;52.090;5.244;2023-01-20T05:28:48;79.61;;;46.4;;
61675;SDS011;47574;52.090;5.244;2023-01-20T05:30:24;76.41;;;45.5;;
61675;SDS011;47574;52.090;5.244;2023-01-20T05:33:38;80.5;;;48.1;;
61675;SDS011;47574;52.090;5.244;2023-01-20T05:35:15;78.2;;;46.6;;
61675;SDS011;47574;52.090;5.244;2023-01-20T05:36:52;79.5;;;47.1;;
61675;SDS011;47574;52.090;5.244;2023-01-20T05:44:14;83.3;;;48.3;;
61675;SDS011;47574;52.090;5.244;2023-01-20T05:45:50;81.91;;;48.6;;
61675;SDS011;47574;52.090;5.244;2023-01-20T05:47:27;80.3;;;47.8;;
61675;SDS011;47574;52.090;5.244;2023-01-20T05:50:41;84.9;;;49.1;;
61675;SDS011;47574;52.090;5.244;2023-01-20T05:52:17;81.41;;;49.2;;
61675;SDS011;47574;52.090;5.244;2023-01-20T05:53:53;87.7;;;50.0;;
61675;SDS011;47574;52.090;5.244;2023-01-20T05:55:29;86.8;;;49.3;;
61675;SDS011;47574;52.090;5.244;2023-01-20T05:58:42;87.0;;;48.2;;
61675;SDS011;47574;52.090;5.244;2023-01-20T06:00:18;88.9;;;49.6;;
61675;SDS011;47574;52.090;5.244;2023-01-20T06:01:55;86.9;;;49.4;;
61675;SDS011;47574;52.090;5.244;2023-01-20T06:05:09;88.8;;;51.0;;
61675;SDS011;47574;52.090;5.244;2023-01-20T06:06:45;91.3;;;52.4;;
61675;SDS011;47574;52.090;5.244;2023-01-20T06:08:21;85.1;;;50.5;;
61675;SDS011;47574;52.090;5.244;2023-01-20T06:11:33;87.7;;;51.7;;
61675;SDS011;47574;52.090;5.244;2023-01-20T06:13:09;90.1;;;51.0;;
61675;SDS011;47574;52.090;5.244;2023-01-20T06:14:45;92.6;;;51.9;;
61675;SDS011;47574;52.090;5.244;2023-01-20T06:17:58;87.9;;;50.7;;
61675;SDS011;47574;52.090;5.244;2023-01-20T06:19:34;85.9;;;49.0;;
61675;SDS011;47574;52.090;5.244;2023-01-20T06:21:10;92.2;;;51.1;;
61675;SDS011;47574;52.090;5.244;2023-01-20T06:22:47;87.4;;;49.8;;
61675;SDS011;47574;52.090;5.244;2023-01-20T06:26:00;87.5;;;51.5;;
61675;SDS011;47574;52.090;5.244;2023-01-20T06:27:37;95.1;;;53.3;;
61675;SDS011;47574;52.090;5.244;2023-01-20T06:29:14;91.0;;;52.9;;
61675;SDS011;47574;52.090;5.244;2023-01-20T06:32:26;93.0;;;54.0;;
61675;SDS011;47574;52.090;5.244;2023-01-20T06:34:02;98.2;;;56.8;;
61675;SDS011;47574;52.090;5.244;2023-01-20T06:35:38;98.7;;;57.1;;
61675;SDS011;47574;52.090;5.244;2023-01-20T06:38:52;95.6;;;56.6;;
61675;SDS011;47574;52.090;5.244;2023-01-20T06:40:27;94.8;;;53.8;;
61675;SDS011;47574;52.090;5.244;2023-01-20T06:42:04;93.4;;;54.5;;
61675;SDS011;47574;52.090;5.244;2023-01-20T06:43:41;93.8;;;55.1;;
61675;SDS011;47574;52.090;5.244;2023-01-20T06:46:56;90.5;;;53.4;;
61675;SDS011;47574;52.090;5.244;2023-01-20T06:48:32;90.5;;;53.4;;
61675;SDS011;47574;52.090;5.244;2023-01-20T06:50:08;86.0;;;51.5;;
61675;SDS011;47574;52.090;5.244;2023-01-20T06:53:24;85.2;;;50.5;;
61675;SDS011;47574;52.090;5.244;2023-01-20T06:55:00;87.3;;;52.1;;
61675;SDS011;47574;52.090;5.244;2023-01-20T06:56:36;88.9;;;51.1;;
61675;SDS011;47574;52.090;5.244;2023-01-20T06:58:12;85.3;;;51.2;;
61675;SDS011;47574;52.090;5.244;2023-01-20T07:01:25;86.6;;;52.0;;
61675;SDS011;47574;52.090;5.244;2023-01-20T07:03:04;85.4;;;50.4;;
61675;SDS011;47574;52.090;5.244;2023-01-20T07:04:41;82.7;;;48.8;;
61675;SDS011;47574;52.090;5.244;2023-01-20T07:08:01;87.3;;;50.7;;
61675;SDS011;47574;52.090;5.244;2023-01-20T07:09:37;85.2;;;50.3;;
61675;SDS011;47574;52.090;5.244;2023-01-20T07:11:13;83.4;;;50.5;;
61675;SDS011;47574;52.090;5.244;2023-01-20T07:14:26;83.9;;;51.4;;
61675;SDS011;47574;52.090;5.244;2023-01-20T07:16:02;86.7;;;50.0;;
61675;SDS011;47574;52.090;5.244;2023-01-20T07:17:38;79.0;;;46.7;;
61675;SDS011;47574;52.090;5.244;2023-01-20T07:19:14;81.5;;;49.4;;
61675;SDS011;47574;52.090;5.244;2023-01-20T07:22:29;82.1;;;49.7;;
61675;SDS011;47574;52.090;5.244;2023-01-20T07:24:05;82.2;;;49.3;;
61675;SDS011;47574;52.090;5.244;2023-01-20T07:25:42;80.41;;;47.5;;
61675;SDS011;47574;52.090;5.244;2023-01-20T07:28:56;86.4;;;50.4;;
61675;SDS011;47574;52.090;5.244;2023-01-20T07:30:32;83.1;;;49.0;;
61675;SDS011;47574;52.090;5.244;2023-01-20T07:32:09;78.41;;;46.8;;
61675;SDS011;47574;52.090;5.244;2023-01-20T07:35:22;77.0;;;47.5;;
61675;SDS011;47574;52.090;5.244;2023-01-20T07:37:00;80.2;;;47.6;;
61675;SDS011;47574;52.090;5.244;2023-01-20T07:38:36;83.3;;;48.0;;
61675;SDS011;47574;52.090;5.244;2023-01-20T07:40:13;80.5;;;47.2;;
61675;SDS011;47574;52.090;5.244;2023-01-20T07:43:26;81.61;;;47.7;;
61675;SDS011;47574;52.090;5.244;2023-01-20T07:46:40;86.3;;;52.4;;
61675;SDS011;47574;52.090;5.244;2023-01-20T07:49:52;85.3;;;50.6;;
61675;SDS011;47574;52.090;5.244;2023-01-20T07:51:28;83.2;;;50.1;;
61675;SDS011;47574;52.090;5.244;2023-01-20T07:53:05;80.61;;;49.2;;
61675;SDS011;47574;52.090;5.244;2023-01-20T07:54:42;78.0;;;47.7;;
61675;SDS011;47574;52.090;5.244;2023-01-20T07:58:01;76.41;;;45.8;;
61675;SDS011;47574;52.090;5.244;2023-01-20T07:59:37;78.7;;;47.2;;
61675;SDS011;47574;52.090;5.244;2023-01-20T08:01:15;80.5;;;49.1;;
61675;SDS011;47574;52.090;5.244;2023-01-20T08:04:29;83.3;;;49.8;;
61675;SDS011;47574;52.090;5.244;2023-01-20T08:06:06;80.0;;;46.7;;
61675;SDS011;47574;52.090;5.244;2023-01-20T08:07:48;80.3;;;47.7;;
61675;SDS011;47574;52.090;5.244;2023-01-20T08:09:25;74.7;;;45.6;;
61675;SDS011;47574;52.090;5.244;2023-01-20T08:12:40;78.11;;;47.0;;
61675;SDS011;47574;52.090;5.244;2023-01-20T08:14:17;76.41;;;46.8;;
61675;SDS011;47574;52.090;5.244;2023-01-20T08:15:53;74.8;;;45.2;;
61675;SDS011;47574;52.090;5.244;2023-01-20T08:19:05;74.8;;;45.2;;
61675;SDS011;47574;52.090;5.244;2023-01-20T08:20:41;75.41;;;45.8;;
61675;SDS011;47574;52.090;5.244;2023-01-20T08:22:17;76.61;;;45.0;;
61675;SDS011;47574;52.090;5.244;2023-01-20T08:25:31;73.11;;;44.9;;
61675;SDS011;47574;52.090;5.244;2023-01-20T08:27:07;74.7;;;46.6;;
61675;SDS011;47574;52.090;5.244;2023-01-20T08:28:43;75.5;;;43.7;;
61675;SDS011;47574;52.090;5.244;2023-01-20T08:30:19;69.2;;;43.1;;
61675;SDS011;47574;52.090;5.244;2023-01-20T08:33:34;67.6;;;42.1;;
61675;SDS011;47574;52.090;5.244;2023-01-20T08:35:10;71.7;;;42.6;;
61675;SDS011;47574;52.090;5.244;2023-01-20T08:36:47;68.41;;;42.4;;
61675;SDS011;47574;52.090;5.244;2023-01-20T08:40:00;66.8;;;41.8;;
61675;SDS011;47574;52.090;5.244;2023-01-20T08:41:37;68.61;;;42.6;;
61675;SDS011;47574;52.090;5.244;2023-01-20T08:43:17;62.7;;;40.0;;
61675;SDS011;47574;52.090;5.244;2023-01-20T08:46:29;63.3;;;39.81;;
61675;SDS011;47574;52.090;5.244;2023-01-20T08:48:07;59.6;;;39.21;;
61675;SDS011;47574;52.090;5.244;2023-01-20T08:49:44;59.8;;;38.71;;
61675;SDS011;47574;52.090;5.244;2023-01-20T08:51:22;59.8;;;38.5;;
61675;SDS011;47574;52.090;5.244;2023-01-20T08:54:37;60.5;;;38.4;;
61675;SDS011;47574;52.090;5.244;2023-01-20T08:56:14;61.0;;;39.6;;
61675;SDS011;47574;52.090;5.244;2023-01-20T08:57:51;56.3;;;37.9;;
61675;SDS011;47574;52.090;5.244;2023-01-20T09:01:06;59.5;;;38.9;;
61675;SDS011;47574;52.090;5.244;2023-01-20T09:02:43;54.0;;;36.9;;
61675;SDS011;47574;52.090;5.244;2023-01-20T09:04:19;55.5;;;36.71;;
61675;SDS011;47574;52.090;5.244;2023-01-20T09:05:59;55.4;;;36.4;;
61675;SDS011;47574;52.090;5.244;2023-01-20T09:09:13;55.5;;;37.1;;
61675;SDS011;47574;52.090;5.244;2023-01-20T09:10:53;51.7;;;35.81;;
61675;SDS011;47574;52.090;5.244;2023-01-20T09:12:36;50.6;;;34.4;;
61675;SDS011;47574;52.090;5.244;2023-01-20T09:14:12;48.1;;;34.0;;
61675;SDS011;47574;52.090;5.244;2023-01-20T09:17:27;46.4;;;33.4;;
61675;SDS011;47574;52.090;5.244;2023-01-20T09:19:03;43.4;;;32.6;;
61675;SDS011;47574;52.090;5.244;2023-01-20T09:20:39;42.0;;;31.6;;
61675;SDS011;47574;52.090;5.244;2023-01-20T09:23:51;50.8;;;35.31;;
61675;SDS011;47574;52.090;5.244;2023-01-20T09:25:27;51.0;;;35.4;;
61675;SDS011;47574;52.090;5.244;2023-01-20T09:27:03;51.7;;;35.81;;
61675;SDS011;47574;52.090;5.244;2023-01-20T09:30:17;51.0;;;35.4;;
61675;SDS011;47574;52.090;5.244;2023-01-20T09:31:57;46.3;;;33.4;;
61675;SDS011;47574;52.090;5.244;2023-01-20T09:33:35;47.2;;;33.3;;
61675;SDS011;47574;52.090;5.244;2023-01-20T09:35:13;53.9;;;36.9;;
61675;SDS011;47574;52.090;5.244;2023-01-20T09:45:25;49.4;;;36.0;;
61675;SDS011;47574;52.090;5.244;2023-01-20T09:47:26;53.1;;;37.21;;
61675;SDS011;47574;52.090;5.244;2023-01-20T09:53:21;46.0;;;33.9;;
61675;SDS011;47574;52.090;5.244;2023-01-20T09:55:10;57.9;;;40.4;;
61675;SDS011;47574;52.090;5.244;2023-01-20T09:56:59;50.4;;;36.5;;
61675;SDS011;47574;52.090;5.244;2023-01-20T09:58:39;47.2;;;35.81;;
61675;SDS011;47574;52.090;5.244;2023-01-20T10:00:24;52.2;;;36.81;;
61675;SDS011;47574;52.090;5.244;2023-01-20T10:03:53;52.2;;;36.81;;
61675;SDS011;47574;52.090;5.244;2023-01-20T10:05:36;42.3;;;32.8;;
61675;SDS011;47574;52.090;5.244;2023-01-20T10:07:15;41.5;;;31.7;;
61675;SDS011;47574;52.090;5.244;2023-01-20T10:08:59;44.0;;;32.6;;
61675;SDS011;47574;52.090;5.244;2023-01-20T10:10:44;46.3;;;34.0;;
61675;SDS011;47574;52.090;5.244;2023-01-20T10:14:11;44.3;;;32.5;;
61675;SDS011;47574;52.090;5.244;2023-01-20T10:15:54;45.1;;;33.3;;
61675;SDS011;47574;52.090;5.244;2023-01-20T10:17:32;45.4;;;33.9;;
61675;SDS011;47574;52.090;5.244;2023-01-20T10:19:16;39.71;;;31.0;;
61675;SDS011;47574;52.090;5.244;2023-01-20T10:24:28;41.8;;;31.5;;
61675;SDS011;47574;52.090;5.244;2023-01-20T10:26:10;46.8;;;34.4;;
61675;SDS011;47574;52.090;5.244;2023-01-20T10:27:52;45.1;;;32.4;;
61675;SDS011;47574;52.090;5.244;2023-01-20T10:29:33;46.1;;;33.8;;
61675;SDS011;47574;52.090;5.244;2023-01-20T10:32:57;46.9;;;34.81;;
61675;SDS011;47574;52.090;5.244;2023-01-20T10:34:42;45.7;;;33.71;;
61675;SDS011;47574;52.090;5.244;2023-01-20T10:36:23;55.0;;;37.31;;
61675;SDS011;47574;52.090;5.244;2023-01-20T10:38:03;48.8;;;35.6;;
61675;SDS011;47574;52.090;5.244;2023-01-20T10:41:27;41.7;;;31.4;;
61675;SDS011;47574;52.090;5.244;2023-01-20T10:43:13;42.5;;;30.6;;
61675;SDS011;47574;52.090;5.244;2023-01-20T10:44:51;49.6;;;34.5;;
61675;SDS011;47574;52.090;5.244;2023-01-20T10:46:32;44.9;;;31.7;;
61675;SDS011;47574;52.090;5.244;2023-01-20T10:48:28;51.5;;;34.81;;
61675;SDS011;47574;52.090;5.244;2023-01-20T10:52:24;39.81;;;30.6;;
61675;SDS011;47574;52.090;5.244;2023-01-20T10:54:18;54.1;;;35.31;;
61675;SDS011;47574;52.090;5.244;2023-01-20T10:56:08;38.81;;;29.6;;
61675;SDS011;47574;52.090;5.244;2023-01-20T10:58:01;42.7;;;31.3;;
61675;SDS011;47574;52.090;5.244;2023-01-20T10:59:51;45.4;;;32.3;;
61675;SDS011;47574;52.090;5.244;2023-01-20T11:01:31;41.0;;;29.7;;
61675;SDS011;47574;52.090;5.244;2023-01-20T11:03:11;41.4;;;29.7;;
61675;SDS011;47574;52.090;5.244;2023-01-20T11:06:35;41.7;;;30.7;;
61675;SDS011;47574;52.090;5.244;2023-01-20T11:08:14;43.5;;;31.4;;
61675;SDS011;47574;52.090;5.244;2023-01-20T11:09:52;43.8;;;31.1;;
61675;SDS011;47574;52.090;5.244;2023-01-20T11:11:29;40.81;;;29.9;;
61675;SDS011;47574;52.090;5.244;2023-01-20T11:14:45;39.31;;;28.1;;
61675;SDS011;47574;52.090;5.244;2023-01-20T11:16:24;35.4;;;27.6;;
61675;SDS011;47574;52.090;5.244;2023-01-20T11:18:19;36.9;;;27.7;;
61675;SDS011;47574;52.090;5.244;2023-01-20T11:20:03;39.0;;;29.0;;
61675;SDS011;47574;52.090;5.244;2023-01-20T11:23:18;41.3;;;30.5;;
61675;SDS011;47574;52.090;5.244;2023-01-20T11:24:58;33.3;;;26.0;;
61675;SDS011;47574;52.090;5.244;2023-01-20T11:26:36;32.5;;;27.1;;
61675;SDS011;47574;52.090;5.244;2023-01-20T11:28:14;31.8;;;25.3;;
61675;SDS011;47574;52.090;5.244;2023-01-20T11:31:35;35.21;;;26.7;;
61675;SDS011;47574;52.090;5.244;2023-01-20T11:33:15;30.0;;;23.6;;
61675;SDS011;47574;52.090;5.244;2023-01-20T11:34:55;31.4;;;24.4;;
61675;SDS011;47574;52.090;5.244;2023-01-20T11:36:32;33.5;;;24.8;;
61675;SDS011;47574;52.090;5.244;2023-01-20T11:40:14;33.9;;;25.5;;
61675;SDS011;47574;52.090;5.244;2023-01-20T11:42:12;28.1;;;23.0;;
61675;SDS011;47574;52.090;5.244;2023-01-20T11:43:51;29.6;;;23.1;;
61675;SDS011;47574;52.090;5.244;2023-01-20T11:45:32;30.6;;;24.4;;
61675;SDS011;47574;52.090;5.244;2023-01-20T11:47:15;33.71;;;25.1;;
61675;SDS011;47574;52.090;5.244;2023-01-20T11:49:05;33.1;;;26.1;;
61675;SDS011;47574;52.090;5.244;2023-01-20T11:52:30;32.0;;;25.4;;
61675;SDS011;47574;52.090;5.244;2023-01-20T11:54:11;30.6;;;24.3;;
61675;SDS011;47574;52.090;5.244;2023-01-20T11:55:52;31.6;;;25.0;;
61675;SDS011;47574;52.090;5.244;2023-01-20T11:57:30;30.6;;;23.8;;
61675;SDS011;47574;52.090;5.244;2023-01-20T12:01:00;29.8;;;23.4;;
61675;SDS011;47574;52.090;5.244;2023-01-20T12:02:40;29.1;;;23.7;;
61675;SDS011;47574;52.090;5.244;2023-01-20T12:04:24;39.31;;;25.5;;
61675;SDS011;47574;52.090;5.244;2023-01-20T12:06:28;31.2;;;24.7;;
61675;SDS011;47574;52.090;5.244;2023-01-20T12:08:10;28.1;;;23.1;;
61675;SDS011;47574;52.090;5.244;2023-01-20T12:11:38;31.5;;;24.9;;
61675;SDS011;47574;52.090;5.244;2023-01-20T12:13:32;37.1;;;27.0;;
61675;SDS011;47574;52.090;5.244;2023-01-20T12:15:14;30.3;;;24.6;;
61675;SDS011;47574;52.090;5.244;2023-01-20T12:16:57;32.4;;;26.1;;
61675;SDS011;47574;52.090;5.244;2023-01-20T12:18:48;36.5;;;26.4;;
61675;SDS011;47574;52.090;5.244;2023-01-20T12:20:32;36.21;;;27.1;;
61675;SDS011;47574;52.090;5.244;2023-01-20T12:23:59;37.81;;;28.3;;
61675;SDS011;47574;52.090;5.244;2023-01-20T12:25:45;40.6;;;30.3;;
61675;SDS011;47574;52.090;5.244;2023-01-20T12:27:29;37.81;;;28.6;;
61675;SDS011;47574;52.090;5.244;2023-01-20T12:29:09;38.71;;;29.9;;
61675;SDS011;47574;52.090;5.244;2023-01-20T12:30:54;39.21;;;29.4;;
61675;SDS011;47574;52.090;5.244;2023-01-20T12:34:12;40.71;;;29.7;;
61675;SDS011;47574;52.090;5.244;2023-01-20T12:36:04;41.6;;;31.2;;
61675;SDS011;47574;52.090;5.244;2023-01-20T12:39:31;41.2;;;31.2;;
61675;SDS011;47574;52.090;5.244;2023-01-20T12:41:56;34.31;;;28.7;;
61675;SDS011;47574;52.090;5.244;2023-01-20T12:45:58;37.6;;;29.0;;
61675;SDS011;47574;52.090;5.244;2023-01-20T12:47:54;37.6;;;29.0;;
61675;SDS011;47574;52.090;5.244;2023-01-20T12:49:49;34.4;;;27.3;;
61675;SDS011;47574;52.090;5.244;2023-01-20T12:53:32;34.81;;;27.9;;
61675;SDS011;47574;52.090;5.244;2023-01-20T12:55:27;37.71;;;28.4;;
61675;SDS011;47574;52.090;5.244;2023-01-20T12:57:20;35.31;;;28.2;;
61675;SDS011;47574;52.090;5.244;2023-01-20T12:59:18;36.1;;;28.2;;
61675;SDS011;47574;52.090;5.244;2023-01-20T13:02:26;36.5;;;27.8;;
61675;SDS011;47574;52.090;5.244;2023-01-20T13:03:24;36.9;;;29.6;;
61675;SDS011;47574;52.090;5.244;2023-01-20T13:04:24;36.9;;;29.6;;